createdAt,value
2022-12-15T00:00:50.274Z,99.99
2022-12-15T00:01:50.937Z,99.99
2022-12-15T00:02:52.126Z,99.99
2022-12-15T00:03:52.383Z,99.99
2022-12-15T00:04:53.046Z,99.99
2022-12-15T00:05:53.755Z,99.99
2022-12-15T00:06:54.550Z,99.99
2022-12-15T00:07:55.506Z,99.99
2022-12-15T00:08:56.213Z,99.99
2022-12-15T00:09:56.927Z,99.99
2022-12-15T00:10:57.632Z,99.99
2022-12-15T00:11:58.337Z,99.99
2022-12-15T00:12:59.092Z,99.99
2022-12-15T00:13:59.760Z,99.99
2022-12-15T00:15:00.470Z,99.99
2022-12-15T00:16:01.282Z,99.99
2022-12-15T00:17:02.002Z,99.99
2022-12-15T00:18:02.721Z,99.99
2022-12-15T00:19:03.425Z,99.99
2022-12-15T00:20:04.134Z,99.99
2022-12-15T00:21:04.845Z,99.99
2022-12-15T00:22:05.553Z,99.99
2022-12-15T00:23:06.270Z,99.99
2022-12-15T00:24:06.976Z,99.99
2022-12-15T00:25:07.684Z,99.99
2022-12-15T00:26:08.393Z,99.99
2022-12-15T00:27:09.114Z,99.99
2022-12-15T00:28:09.837Z,99.99
2022-12-15T00:29:10.513Z,99.99
2022-12-15T00:30:11.217Z,99.99
2022-12-15T00:31:11.984Z,99.99
2022-12-15T00:32:12.631Z,99.99
2022-12-15T00:33:13.348Z,99.99
2022-12-15T00:34:14.058Z,99.99
2022-12-15T00:35:14.764Z,99.99
2022-12-15T00:36:15.470Z,99.99
2022-12-15T00:37:16.180Z,99.99
2022-12-15T00:38:16.896Z,99.99
2022-12-15T00:39:17.607Z,99.99
2022-12-15T00:40:18.316Z,99.99
2022-12-15T00:41:19.023Z,99.99
2022-12-15T00:42:19.731Z,99.99
2022-12-15T00:43:20.468Z,99.99
2022-12-15T00:44:21.153Z,99.99
2022-12-15T00:45:21.860Z,99.99
2022-12-15T00:46:22.680Z,99.99
2022-12-15T00:47:23.373Z,99.99
2022-12-15T00:48:24.089Z,99.99
2022-12-15T00:49:24.797Z,99.99
2022-12-15T00:50:25.507Z,99.99
2022-12-15T00:51:26.215Z,99.99
2022-12-15T00:52:26.925Z,99.99
2022-12-15T00:53:28.245Z,99.99
2022-12-15T00:54:28.546Z,99.99
2022-12-15T00:55:29.259Z,99.99
2022-12-15T00:56:29.967Z,99.99
2022-12-15T00:57:30.679Z,99.99
2022-12-15T00:58:31.421Z,99.99
2022-12-15T00:59:32.094Z,99.99
2022-12-15T01:00:32.798Z,99.99
2022-12-15T01:01:33.682Z,99.99
2022-12-15T01:02:34.520Z,99.99
2022-12-15T01:03:35.901Z,99.99
2022-12-15T01:04:35.973Z,99.99
2022-12-15T01:05:36.679Z,99.99
2022-12-15T01:06:37.390Z,99.99
2022-12-15T01:07:38.098Z,99.99
2022-12-15T01:08:39.000Z,99.99
2022-12-15T01:09:39.709Z,99.99
2022-12-15T01:10:40.421Z,99.99
2022-12-15T01:11:41.125Z,99.99
2022-12-15T01:12:41.836Z,99.99
2022-12-15T01:13:43.034Z,99.99
2022-12-15T01:14:44.123Z,99.99
2022-12-15T01:15:43.910Z,99.99
2022-12-15T01:16:44.683Z,99.99
2022-12-15T01:17:45.339Z,99.99
2022-12-15T01:18:49.594Z,99.99
2022-12-15T01:19:46.937Z,99.99
2022-12-15T01:20:47.687Z,99.99
2022-12-15T01:21:48.397Z,99.99
2022-12-15T01:22:49.107Z,99.99
2022-12-15T01:23:50.006Z,99.99
2022-12-15T01:24:50.711Z,99.99
2022-12-15T01:25:51.448Z,99.99
2022-12-15T01:26:52.135Z,99.99
2022-12-15T01:27:52.850Z,99.99
2022-12-15T01:28:54.022Z,99.99
2022-12-15T01:29:54.170Z,99.99
2022-12-15T01:30:54.879Z,99.99
2022-12-15T01:31:55.861Z,99.99
2022-12-15T01:32:56.574Z,99.99
2022-12-15T01:33:57.290Z,99.99
2022-12-15T01:34:58.001Z,99.99
2022-12-15T01:35:58.709Z,99.99
2022-12-15T01:36:59.417Z,99.99
2022-12-15T01:38:00.124Z,99.99
2022-12-15T01:39:00.840Z,99.99
2022-12-15T01:40:01.549Z,99.99
2022-12-15T01:41:02.254Z,99.99
2022-12-15T01:42:02.965Z,99.99
2022-12-15T01:43:03.671Z,99.99
2022-12-15T01:44:04.406Z,99.99
2022-12-15T01:45:05.074Z,99.99
2022-12-15T01:46:05.780Z,99.99
2022-12-15T01:47:06.602Z,99.99
2022-12-15T01:48:07.255Z,99.99
2022-12-15T01:49:08.000Z,99.99
2022-12-15T01:50:08.710Z,99.99
2022-12-15T01:51:09.422Z,99.99
2022-12-15T01:52:10.130Z,99.99
2022-12-15T01:53:10.838Z,99.99
2022-12-15T01:54:11.555Z,99.99
2022-12-15T01:55:12.264Z,99.99
2022-12-15T01:56:12.970Z,99.99
2022-12-15T01:57:13.681Z,99.99
2022-12-15T01:58:14.385Z,99.99
2022-12-15T01:59:15.118Z,99.99
2022-12-15T02:00:15.778Z,99.99
2022-12-15T02:01:16.627Z,99.99
2022-12-15T02:02:17.460Z,99.99
2022-12-15T02:03:18.272Z,99.99
2022-12-15T02:04:18.931Z,99.99
2022-12-15T02:05:19.641Z,99.99
2022-12-15T02:06:20.348Z,99.99
2022-12-15T02:07:21.056Z,99.99
2022-12-15T02:08:21.764Z,99.99
2022-12-15T02:09:22.499Z,99.99
2022-12-15T02:10:23.207Z,99.99
2022-12-15T02:11:23.915Z,99.99
2022-12-15T02:12:24.621Z,99.99
2022-12-15T02:13:25.327Z,99.99
2022-12-15T02:14:26.079Z,99.99
2022-12-15T02:15:26.769Z,99.99
2022-12-15T02:16:27.594Z,99.99
2022-12-15T02:17:28.284Z,99.99
2022-12-15T02:18:28.971Z,99.99
2022-12-15T02:19:29.710Z,99.99
2022-12-15T02:20:30.421Z,99.99
2022-12-15T02:21:31.146Z,99.99
2022-12-15T02:22:31.838Z,99.99
2022-12-15T02:23:33.034Z,99.99
2022-12-15T02:24:34.009Z,99.99
2022-12-15T02:25:34.212Z,99.99
2022-12-15T02:26:34.918Z,99.99
2022-12-15T02:27:35.626Z,99.99
2022-12-15T02:28:36.348Z,99.99
2022-12-15T02:29:37.083Z,99.99
2022-12-15T02:30:37.774Z,99.99
2022-12-15T02:31:38.761Z,99.99
2022-12-15T02:32:39.425Z,99.99
2022-12-15T02:33:40.110Z,99.99
2022-12-15T02:34:40.823Z,99.99
2022-12-15T02:35:41.529Z,99.99
2022-12-15T02:36:42.240Z,99.99
2022-12-15T02:37:42.946Z,99.99
2022-12-15T02:38:43.650Z,99.99
2022-12-15T02:39:44.368Z,99.99
2022-12-15T02:40:45.076Z,99.99
2022-12-15T02:41:45.785Z,99.99
2022-12-15T02:42:46.497Z,99.99
2022-12-15T02:43:47.205Z,99.99
2022-12-15T02:44:48.518Z,99.99
2022-12-15T02:45:48.748Z,99.99
2022-12-15T02:46:49.413Z,99.99
2022-12-15T02:47:50.142Z,99.99
2022-12-15T02:48:50.834Z,99.99
2022-12-15T02:49:51.550Z,99.99
2022-12-15T02:50:52.258Z,99.99
2022-12-15T02:51:52.990Z,99.99
2022-12-15T02:52:53.687Z,99.99
2022-12-15T02:53:54.395Z,99.99
2022-12-15T02:54:55.498Z,99.99
2022-12-15T02:55:55.709Z,99.99
2022-12-15T02:56:56.419Z,99.99
2022-12-15T02:57:57.133Z,99.99
2022-12-15T02:58:57.847Z,99.99
2022-12-15T02:59:59.025Z,99.99
2022-12-15T03:00:59.266Z,99.99
2022-12-15T03:02:00.169Z,99.99
2022-12-15T03:03:00.843Z,99.99
2022-12-15T03:04:01.082Z,99.99
2022-12-15T03:05:01.814Z,99.99
2022-12-15T03:06:02.526Z,99.99
2022-12-15T03:07:03.233Z,99.99
2022-12-15T03:08:03.943Z,99.99
2022-12-15T03:09:04.648Z,99.99
2022-12-15T03:10:05.363Z,99.99
2022-12-15T03:11:06.074Z,99.99
2022-12-15T03:12:06.785Z,99.99
2022-12-15T03:13:07.495Z,99.99
2022-12-15T03:14:08.201Z,99.99
2022-12-15T03:15:09.035Z,99.99
2022-12-15T03:16:09.742Z,99.99
2022-12-15T03:17:10.420Z,99.99
2022-12-15T03:18:11.162Z,99.99
2022-12-15T03:19:11.842Z,99.99
2022-12-15T03:20:13.003Z,99.99
2022-12-15T03:21:13.211Z,99.99
2022-12-15T03:22:13.923Z,99.99
2022-12-15T03:23:14.651Z,99.99
2022-12-15T03:24:15.360Z,99.99
2022-12-15T03:25:16.076Z,99.99
2022-12-15T03:26:16.780Z,99.99
2022-12-15T03:27:17.487Z,99.99
2022-12-15T03:28:18.194Z,99.99
2022-12-15T03:29:18.909Z,99.99
2022-12-15T03:30:19.642Z,99.99
2022-12-15T03:31:20.341Z,99.99
2022-12-15T03:32:21.061Z,99.99
2022-12-15T03:33:21.750Z,99.99
2022-12-15T03:34:22.440Z,99.99
2022-12-15T03:35:23.157Z,99.99
2022-12-15T03:36:23.863Z,99.99
2022-12-15T03:37:24.569Z,99.99
2022-12-15T03:38:25.277Z,99.99
2022-12-15T03:39:26.005Z,99.99
2022-12-15T03:40:26.999Z,99.99
2022-12-15T03:41:27.209Z,99.99
2022-12-15T03:42:27.919Z,99.99
2022-12-15T03:43:29.074Z,99.99
2022-12-15T03:44:29.421Z,99.99
2022-12-15T03:45:30.167Z,99.99
2022-12-15T03:46:30.929Z,99.99
2022-12-15T03:47:31.572Z,99.99
2022-12-15T03:48:32.306Z,99.99
2022-12-15T03:49:33.003Z,99.99
2022-12-15T03:50:33.718Z,99.99
2022-12-15T03:51:34.424Z,99.99
2022-12-15T03:52:35.131Z,99.99
2022-12-15T03:53:35.840Z,99.99
2022-12-15T03:54:36.548Z,99.99
2022-12-15T03:55:37.494Z,99.99
2022-12-15T03:56:38.204Z,99.99
2022-12-15T03:57:38.914Z,99.99
2022-12-15T03:58:39.625Z,99.99
2022-12-15T03:59:40.331Z,99.99
2022-12-15T04:00:41.071Z,99.99
2022-12-15T04:01:41.831Z,99.99
2022-12-15T04:02:42.760Z,99.99
2022-12-15T04:03:43.629Z,99.99
2022-12-15T04:04:44.310Z,99.99
2022-12-15T04:05:45.024Z,99.99
2022-12-15T04:06:45.737Z,99.99
2022-12-15T04:07:46.444Z,99.99
2022-12-15T04:08:47.165Z,99.99
2022-12-15T04:09:48.020Z,99.99
2022-12-15T04:10:48.733Z,99.99
2022-12-15T04:11:49.450Z,99.99
2022-12-15T04:12:50.159Z,99.99
2022-12-15T04:13:50.867Z,99.99
2022-12-15T04:14:51.576Z,99.99
2022-12-15T04:15:52.533Z,99.99
2022-12-15T04:16:53.350Z,99.99
2022-12-15T04:17:54.012Z,99.99
2022-12-15T04:18:54.738Z,99.99
2022-12-15T04:19:55.422Z,99.99
2022-12-15T04:20:56.503Z,99.99
2022-12-15T04:21:56.708Z,99.99
2022-12-15T04:22:57.435Z,99.99
2022-12-15T04:23:58.143Z,99.99
2022-12-15T04:24:58.860Z,99.99
2022-12-15T04:25:59.999Z,99.99
2022-12-15T04:27:00.208Z,99.99
2022-12-15T04:28:01.901Z,99.99
2022-12-15T04:29:01.619Z,99.99
2022-12-15T04:30:02.325Z,99.99
2022-12-15T04:31:03.583Z,99.99
2022-12-15T04:32:03.771Z,99.99
2022-12-15T04:33:04.480Z,99.99
2022-12-15T04:34:05.206Z,99.99
2022-12-15T04:35:05.899Z,99.99
2022-12-15T04:36:06.994Z,99.99
2022-12-15T04:37:07.204Z,99.99
2022-12-15T04:38:07.940Z,99.99
2022-12-15T04:39:08.645Z,99.99
2022-12-15T04:40:09.356Z,99.99
2022-12-15T04:41:10.493Z,99.99
2022-12-15T04:42:10.704Z,99.99
2022-12-15T04:43:11.409Z,99.99
2022-12-15T04:44:12.115Z,99.99
2022-12-15T04:45:17.084Z,99.99
2022-12-15T04:46:14.550Z,99.99
2022-12-15T04:47:14.197Z,99.99
2022-12-15T04:48:14.905Z,99.99
2022-12-15T04:49:15.630Z,99.99
2022-12-15T04:50:16.320Z,99.99
2022-12-15T04:51:17.493Z,99.99
2022-12-15T04:52:17.701Z,99.99
2022-12-15T04:53:18.407Z,99.99
2022-12-15T04:54:19.120Z,99.99
2022-12-15T04:55:19.832Z,99.99
2022-12-15T04:56:21.006Z,99.99
2022-12-15T04:57:21.202Z,99.99
2022-12-15T04:58:21.914Z,99.99
2022-12-15T04:59:22.619Z,99.99
2022-12-15T05:00:23.324Z,99.99
2022-12-15T05:01:24.171Z,99.99
2022-12-15T05:02:25.151Z,99.99
2022-12-15T05:03:25.858Z,99.99
2022-12-15T05:04:26.633Z,99.99
2022-12-15T05:05:27.295Z,99.99
2022-12-15T05:06:28.493Z,99.99
2022-12-15T05:07:28.701Z,99.99
2022-12-15T05:08:29.412Z,99.99
2022-12-15T05:09:30.118Z,99.99
2022-12-15T05:10:30.828Z,99.99
2022-12-15T05:11:31.996Z,99.99
2022-12-15T05:12:32.202Z,99.99
2022-12-15T05:13:33.329Z,99.99
2022-12-15T05:14:33.617Z,99.99
2022-12-15T05:15:34.453Z,99.99
2022-12-15T05:16:35.533Z,99.99
2022-12-15T05:17:41.299Z,99.99
2022-12-15T05:18:37.314Z,99.99
2022-12-15T05:19:37.076Z,99.99
2022-12-15T05:20:37.733Z,99.99
2022-12-15T05:21:38.497Z,99.99
2022-12-15T05:22:39.202Z,99.99
2022-12-15T05:23:39.909Z,99.99
2022-12-15T05:24:40.613Z,99.99
2022-12-15T05:25:41.318Z,99.99
2022-12-15T05:26:42.038Z,99.99
2022-12-15T05:27:42.743Z,99.99
2022-12-15T05:28:43.451Z,99.99
2022-12-15T05:29:44.158Z,99.99
2022-12-15T05:30:44.941Z,99.99
2022-12-15T05:31:46.010Z,99.99
2022-12-15T05:32:46.155Z,99.99
2022-12-15T05:33:47.053Z,99.99
2022-12-15T05:34:47.779Z,99.99
2022-12-15T05:35:48.464Z,99.99
2022-12-15T05:36:49.178Z,99.99
2022-12-15T05:37:49.884Z,99.99
2022-12-15T05:38:50.589Z,99.99
2022-12-15T05:39:51.294Z,99.99
2022-12-15T05:40:52.017Z,99.99
2022-12-15T05:41:52.991Z,99.99
2022-12-15T05:42:53.697Z,99.99
2022-12-15T05:43:54.615Z,99.99
2022-12-15T05:44:55.325Z,99.99
2022-12-15T05:45:56.116Z,99.99
2022-12-15T05:46:56.806Z,99.99
2022-12-15T05:47:57.466Z,99.99
2022-12-15T05:48:58.174Z,99.99
2022-12-15T05:49:58.899Z,99.99
2022-12-15T05:50:59.593Z,99.99
2022-12-15T05:52:00.491Z,99.99
2022-12-15T05:53:01.202Z,99.99
2022-12-15T05:54:01.910Z,99.99
2022-12-15T05:55:02.619Z,99.99
2022-12-15T05:56:03.327Z,99.99
2022-12-15T05:57:04.048Z,99.99
2022-12-15T05:58:04.753Z,99.99
2022-12-15T05:59:05.461Z,99.99
2022-12-15T06:00:06.167Z,99.99
2022-12-15T06:01:06.887Z,99.99
2022-12-15T06:02:07.702Z,99.99
2022-12-15T06:03:08.468Z,99.99
2022-12-15T06:04:09.236Z,99.99
2022-12-15T06:05:09.971Z,99.99
2022-12-15T06:06:10.608Z,99.99
2022-12-15T06:07:11.492Z,99.99
2022-12-15T06:08:12.200Z,99.99
2022-12-15T06:09:12.907Z,99.99
2022-12-15T06:10:13.626Z,99.99
2022-12-15T06:11:14.344Z,99.99
2022-12-15T06:12:15.061Z,99.99
2022-12-15T06:13:15.775Z,99.99
2022-12-15T06:14:16.487Z,99.99
2022-12-15T06:15:17.197Z,99.99
2022-12-15T06:16:17.957Z,99.99
2022-12-15T06:17:19.034Z,99.99
2022-12-15T06:18:19.225Z,99.99
2022-12-15T06:19:19.942Z,99.99
2022-12-15T06:20:20.655Z,99.99
2022-12-15T06:21:21.344Z,99.99
2022-12-15T06:22:22.491Z,99.99
2022-12-15T06:23:22.702Z,99.99
2022-12-15T06:24:23.414Z,99.99
2022-12-15T06:25:24.130Z,99.99
2022-12-15T06:26:24.843Z,99.99
2022-12-15T06:27:25.997Z,99.99
2022-12-15T06:28:26.210Z,99.99
2022-12-15T06:29:26.932Z,99.99
2022-12-15T06:30:27.632Z,99.99
2022-12-15T06:31:28.414Z,99.99
2022-12-15T06:32:29.113Z,99.99
2022-12-15T06:33:30.154Z,99.99
2022-12-15T06:34:30.592Z,99.99
2022-12-15T06:35:31.334Z,99.99
2022-12-15T06:36:32.025Z,99.99
2022-12-15T06:37:32.992Z,99.99
2022-12-15T06:38:33.703Z,99.99
2022-12-15T06:39:34.413Z,99.99
2022-12-15T06:40:38.243Z,99.99
2022-12-15T06:41:36.050Z,99.99
2022-12-15T06:42:36.990Z,99.99
2022-12-15T06:43:37.698Z,99.99
2022-12-15T06:44:38.407Z,99.99
2022-12-15T06:45:39.223Z,99.99
2022-12-15T06:46:40.021Z,99.99
2022-12-15T06:47:40.707Z,99.99
2022-12-15T06:48:41.394Z,99.99
2022-12-15T06:49:42.102Z,99.99
2022-12-15T06:50:42.834Z,99.99
2022-12-15T06:51:43.523Z,99.99
2022-12-15T06:52:44.488Z,99.99
2022-12-15T06:53:45.197Z,99.99
2022-12-15T06:54:45.907Z,99.99
2022-12-15T06:55:46.613Z,99.99
2022-12-15T06:56:49.900Z,99.99
2022-12-15T06:57:48.301Z,99.99
2022-12-15T06:58:49.038Z,99.99
2022-12-15T06:59:49.742Z,99.99
2022-12-15T07:00:50.448Z,99.99
2022-12-15T07:01:51.436Z,99.99
2022-12-15T07:02:51.939Z,99.99
2022-12-15T07:03:52.547Z,99.99
2022-12-15T07:04:52.817Z,99.99
2022-12-15T07:05:53.548Z,99.99
2022-12-15T07:06:54.241Z,99.99
2022-12-15T07:07:54.946Z,99.99
2022-12-15T07:08:55.653Z,99.99
2022-12-15T07:09:56.361Z,99.99
2022-12-15T07:10:57.067Z,99.99
2022-12-15T07:11:57.773Z,99.99
2022-12-15T07:12:58.488Z,99.99
2022-12-15T07:13:59.198Z,99.99
2022-12-15T07:14:59.909Z,99.99
2022-12-15T07:16:00.693Z,99.99
2022-12-15T07:17:01.344Z,99.99
2022-12-15T07:18:02.527Z,99.99
2022-12-15T07:19:02.714Z,99.99
2022-12-15T07:20:03.428Z,99.99
2022-12-15T07:21:04.162Z,99.99
2022-12-15T07:22:04.846Z,99.99
2022-12-15T07:23:05.564Z,99.99
2022-12-15T07:24:06.798Z,99.99
2022-12-15T07:25:06.846Z,99.99
2022-12-15T07:26:11.423Z,99.99
2022-12-15T07:27:08.485Z,99.99
2022-12-15T07:28:09.201Z,99.99
2022-12-15T07:29:09.909Z,99.99
2022-12-15T07:30:10.637Z,99.99
2022-12-15T07:31:11.486Z,99.99
2022-12-15T07:32:12.184Z,99.99
2022-12-15T07:33:12.916Z,99.99
2022-12-15T07:34:13.558Z,99.99
2022-12-15T07:35:14.265Z,99.99
2022-12-15T07:36:15.049Z,99.99
2022-12-15T07:37:15.685Z,99.99
2022-12-15T07:38:16.401Z,99.99
2022-12-15T07:39:17.109Z,99.99
2022-12-15T07:40:17.815Z,99.99
2022-12-15T07:41:18.541Z,99.99
2022-12-15T07:42:19.237Z,99.99
2022-12-15T07:43:19.955Z,99.99
2022-12-15T07:44:20.661Z,99.99
2022-12-15T07:45:21.368Z,99.99
2022-12-15T07:46:22.177Z,99.99
2022-12-15T07:47:22.823Z,99.99
2022-12-15T07:48:23.559Z,99.99
2022-12-15T07:49:24.266Z,99.99
2022-12-15T07:50:24.967Z,99.99
2022-12-15T07:51:25.792Z,99.99
2022-12-15T07:52:26.416Z,99.99
2022-12-15T07:53:27.650Z,99.99
2022-12-15T07:54:27.907Z,99.99
2022-12-15T07:55:57.117Z,99.99
2022-12-15T07:56:34.433Z,99.99
2022-12-15T07:57:30.829Z,99.99
2022-12-15T07:58:30.999Z,99.99
2022-12-15T07:59:31.284Z,99.99
2022-12-15T08:00:31.993Z,99.99
2022-12-15T08:01:32.863Z,99.99
2022-12-15T08:02:33.807Z,99.99
2022-12-15T08:03:35.735Z,99.99
2022-12-15T08:04:35.247Z,99.99
2022-12-15T08:05:35.954Z,99.99
2022-12-15T08:06:36.685Z,99.99
2022-12-15T08:07:37.372Z,99.99
2022-12-15T08:08:38.512Z,99.99
2022-12-15T08:09:38.700Z,99.99
2022-12-15T08:10:39.449Z,99.99
2022-12-15T08:11:40.163Z,99.99
2022-12-15T08:12:40.874Z,99.99
2022-12-15T08:14:43.201Z,99.99
2022-12-15T08:15:42.921Z,99.99
2022-12-15T08:16:43.703Z,99.99
2022-12-15T08:17:44.410Z,99.99
2022-12-15T08:18:45.158Z,99.99
2022-12-15T08:19:45.843Z,99.99
2022-12-15T08:20:46.551Z,99.99
2022-12-15T08:21:47.552Z,99.99
2022-12-15T08:22:48.249Z,99.99
2022-12-15T08:23:48.995Z,99.99
2022-12-15T08:24:49.702Z,99.99
2022-12-15T08:25:50.414Z,99.99
2022-12-15T08:26:51.123Z,99.99
2022-12-15T08:27:51.829Z,99.99
2022-12-15T08:28:52.551Z,99.99
2022-12-15T08:29:53.295Z,99.99
2022-12-15T08:30:53.969Z,99.99
2022-12-15T08:31:54.787Z,99.99
2022-12-15T08:32:55.484Z,99.99
2022-12-15T08:33:56.216Z,99.99
2022-12-15T08:34:56.875Z,99.99
2022-12-15T08:35:57.601Z,99.99
2022-12-15T08:36:58.322Z,99.99
2022-12-15T08:38:05.096Z,99.99
2022-12-15T08:39:00.989Z,99.99
2022-12-15T08:40:00.220Z,99.99
2022-12-15T08:41:00.913Z,99.99
2022-12-15T08:42:01.633Z,99.99
2022-12-15T08:43:02.344Z,99.99
2022-12-15T08:44:03.493Z,99.99
2022-12-15T08:45:03.710Z,99.99
2022-12-15T08:46:04.411Z,99.99
2022-12-15T08:47:05.124Z,99.99
2022-12-15T08:48:05.832Z,99.99
2022-12-15T08:49:07.006Z,99.99
2022-12-15T08:50:07.167Z,99.99
2022-12-15T08:51:07.878Z,99.99
2022-12-15T08:52:08.613Z,99.99
2022-12-15T08:53:30.307Z,99.99
2022-12-15T08:54:11.490Z,99.99
2022-12-15T08:55:10.701Z,99.99
2022-12-15T08:56:11.424Z,99.99
2022-12-15T08:57:12.138Z,99.99
2022-12-15T08:58:12.847Z,99.99
2022-12-15T08:59:13.561Z,99.99
2022-12-15T09:00:14.275Z,99.99
2022-12-15T09:01:22.174Z,99.99
2022-12-15T09:02:16.767Z,99.99
2022-12-15T09:03:16.467Z,99.99
2022-12-15T09:04:17.319Z,99.99
2022-12-15T09:05:18.104Z,99.99
2022-12-15T09:06:18.826Z,99.99
2022-12-15T09:07:19.554Z,99.99
2022-12-15T09:08:20.236Z,99.99
2022-12-15T09:09:20.997Z,99.99
2022-12-15T09:10:21.703Z,99.99
2022-12-15T09:11:22.417Z,99.99
2022-12-15T09:12:23.130Z,99.99
2022-12-15T09:13:23.837Z,99.99
2022-12-15T09:14:29.146Z,99.99
2022-12-15T09:15:45.449Z,99.99
2022-12-15T09:16:27.023Z,99.99
2022-12-15T09:17:26.771Z,99.99
2022-12-15T09:18:27.467Z,99.99
2022-12-15T09:19:28.545Z,99.99
2022-12-15T09:20:28.758Z,99.99
2022-12-15T09:21:29.458Z,99.99
2022-12-15T09:22:30.207Z,99.99
2022-12-15T09:23:31.293Z,99.99
2022-12-15T09:24:35.021Z,99.99
2022-12-15T09:25:32.204Z,99.99
2022-12-15T09:26:32.924Z,99.99
2022-12-15T09:27:33.646Z,99.99
2022-12-15T09:28:34.385Z,99.99
2022-12-15T09:29:35.107Z,99.99
2022-12-15T09:30:35.850Z,99.99
2022-12-15T09:31:36.532Z,99.99
2022-12-15T09:32:37.243Z,99.98
2022-12-15T09:33:37.967Z,99.82
2022-12-15T09:34:39.010Z,99.99
2022-12-15T09:35:39.212Z,99.99
2022-12-15T09:36:39.945Z,99.31
2022-12-15T09:37:40.730Z,99.10
2022-12-15T09:38:41.365Z,99.31
2022-12-15T09:39:42.489Z,99.41
2022-12-15T09:40:42.696Z,98.62
2022-12-15T09:41:43.402Z,98.94
2022-12-15T09:42:44.114Z,99.21
2022-12-15T09:43:47.327Z,99.68
2022-12-15T09:44:45.528Z,98.11
2022-12-15T09:45:46.359Z,96.96
2022-12-15T09:46:49.886Z,96.44
2022-12-15T09:47:47.770Z,96.02
2022-12-15T09:48:48.482Z,96.23
2022-12-15T09:49:49.507Z,96.29
2022-12-15T09:50:49.715Z,96.29
2022-12-15T09:51:50.423Z,95.56
2022-12-15T09:52:51.154Z,95.25
2022-12-15T09:53:55.039Z,95.35
2022-12-15T09:54:52.520Z,95.98
2022-12-15T09:55:53.187Z,95.66
2022-12-15T09:56:53.908Z,95.41
2022-12-15T09:57:54.625Z,95.20
2022-12-15T09:58:55.352Z,94.78
2022-12-15T09:59:56.550Z,94.74
2022-12-15T10:00:56.735Z,94.64
2022-12-15T10:01:57.485Z,93.86
2022-12-15T10:02:58.290Z,93.76
2022-12-15T10:03:59.137Z,93.23
2022-12-15T10:04:59.885Z,92.92
2022-12-15T10:06:18.434Z,93.08
2022-12-15T10:07:02.179Z,92.25
2022-12-15T10:08:01.911Z,91.20
2022-12-15T10:09:02.595Z,91.62
2022-12-15T10:10:03.500Z,92.25
2022-12-15T10:11:04.211Z,91.10
2022-12-15T10:12:04.934Z,91.94
2022-12-15T10:13:05.711Z,91.62
2022-12-15T10:14:06.461Z,91.52
2022-12-15T10:15:07.492Z,91.72
2022-12-15T10:16:07.755Z,91.46
2022-12-15T10:17:08.414Z,91.35
2022-12-15T10:18:09.122Z,91.10
2022-12-15T10:19:09.832Z,90.58
2022-12-15T10:20:11.025Z,90.12
2022-12-15T10:21:11.191Z,89.70
2022-12-15T10:22:11.899Z,89.39
2022-12-15T10:23:12.671Z,88.93
2022-12-15T10:24:13.354Z,89.14
2022-12-15T10:25:14.493Z,89.03
2022-12-15T10:26:14.698Z,89.24
2022-12-15T10:27:15.416Z,89.91
2022-12-15T10:28:16.138Z,90.01
2022-12-15T10:29:16.835Z,90.47
2022-12-15T10:30:18.054Z,91.10
2022-12-15T10:31:18.374Z,90.85
2022-12-15T10:32:19.065Z,90.50
2022-12-15T10:33:19.780Z,89.76
2022-12-15T10:34:20.590Z,89.34
2022-12-15T10:35:21.269Z,89.20
2022-12-15T10:36:21.932Z,88.99
2022-12-15T10:37:22.645Z,88.57
2022-12-15T10:38:23.383Z,88.01
2022-12-15T10:39:24.086Z,88.53
2022-12-15T10:40:24.992Z,88.78
2022-12-15T10:41:25.702Z,89.20
2022-12-15T10:42:26.431Z,89.66
2022-12-15T10:43:27.365Z,89.66
2022-12-15T10:44:32.216Z,90.14
2022-12-15T10:45:28.580Z,90.66
2022-12-15T10:46:29.375Z,90.20
2022-12-15T10:47:30.080Z,89.12
2022-12-15T10:48:30.791Z,88.81
2022-12-15T10:49:31.498Z,88.81
2022-12-15T10:50:32.239Z,88.45
2022-12-15T10:51:32.907Z,87.41
2022-12-15T10:52:33.639Z,87.97
2022-12-15T10:53:34.789Z,89.12
2022-12-15T10:54:35.074Z,88.81
2022-12-15T10:55:35.791Z,89.32
2022-12-15T10:56:36.506Z,90.00
2022-12-15T10:57:37.207Z,90.83
2022-12-15T10:58:37.909Z,90.72
2022-12-15T10:59:38.623Z,90.89
2022-12-15T11:00:39.348Z,90.37
2022-12-15T11:01:40.283Z,90.62
2022-12-15T11:02:41.265Z,90.72
2022-12-15T11:03:42.041Z,90.62
2022-12-15T11:04:42.607Z,90.37
2022-12-15T11:05:43.310Z,90.37
2022-12-15T11:06:43.999Z,89.39
2022-12-15T11:07:44.876Z,89.39
2022-12-15T11:08:45.575Z,88.87
2022-12-15T11:09:46.245Z,88.93
2022-12-15T11:10:46.990Z,89.18
2022-12-15T11:11:47.636Z,89.45
2022-12-15T11:12:48.826Z,89.35
2022-12-15T11:13:48.865Z,88.79
2022-12-15T11:14:49.488Z,88.29
2022-12-15T11:15:50.741Z,87.42
2022-12-15T11:16:51.192Z,86.59
2022-12-15T11:17:51.896Z,86.65
2022-12-15T11:18:52.614Z,85.99
2022-12-15T11:19:59.830Z,85.47
2022-12-15T11:20:55.035Z,85.12
2022-12-15T11:21:54.708Z,84.81
2022-12-15T11:22:55.422Z,84.70
2022-12-15T11:23:56.141Z,84.91
2022-12-15T11:24:56.836Z,85.50
2022-12-15T11:25:59.206Z,84.46
2022-12-15T11:26:58.388Z,83.53
2022-12-15T11:27:59.105Z,83.32
2022-12-15T11:28:59.819Z,84.56
2022-12-15T11:30:00.554Z,85.04
2022-12-15T11:31:01.303Z,83.69
2022-12-15T11:32:07.032Z,84.63
2022-12-15T11:33:03.612Z,84.28
2022-12-15T11:34:03.333Z,83.03
2022-12-15T11:35:04.044Z,83.76
2022-12-15T11:36:05.013Z,82.89
2022-12-15T11:37:05.711Z,83.31
2022-12-15T11:38:06.421Z,83.58
2022-12-15T11:39:07.195Z,82.06
2022-12-15T11:40:07.930Z,82.79
2022-12-15T11:41:08.646Z,82.79
2022-12-15T11:42:09.347Z,82.17
2022-12-15T11:43:10.057Z,82.45
2022-12-15T11:44:10.955Z,83.28
2022-12-15T11:45:11.806Z,83.38
2022-12-15T11:46:13.143Z,84.63
2022-12-15T11:47:13.338Z,85.35
2022-12-15T11:48:14.044Z,84.63
2022-12-15T11:49:14.755Z,84.31
2022-12-15T11:50:15.480Z,84.56
2022-12-15T11:51:16.571Z,84.88
2022-12-15T11:52:16.699Z,85.43
2022-12-15T11:53:17.467Z,85.64
2022-12-15T11:54:18.213Z,85.60
2022-12-15T11:55:20.831Z,85.77
2022-12-15T11:56:20.505Z,86.18
2022-12-15T11:57:20.244Z,85.56
2022-12-15T11:58:20.937Z,84.69
2022-12-15T11:59:21.649Z,83.97
2022-12-15T12:00:22.364Z,84.55
2022-12-15T12:01:23.536Z,83.72
2022-12-15T12:02:23.870Z,83.45
2022-12-15T12:03:24.652Z,83.55
2022-12-15T12:04:25.292Z,84.38
2022-12-15T12:05:26.084Z,83.97
2022-12-15T12:06:27.015Z,84.28
2022-12-15T12:07:27.750Z,83.31
2022-12-15T12:08:28.985Z,83.97
2022-12-15T12:09:29.415Z,84.48
2022-12-15T12:10:30.113Z,85.11
2022-12-15T12:11:31.042Z,84.38
2022-12-15T12:12:31.707Z,84.38
2022-12-15T12:13:32.574Z,84.42
2022-12-15T12:14:33.283Z,85.22
2022-12-15T12:15:33.992Z,86.47
2022-12-15T12:16:35.584Z,87.09
2022-12-15T12:17:35.250Z,86.12
2022-12-15T12:18:36.299Z,86.22
2022-12-15T12:19:36.630Z,85.95
2022-12-15T12:20:37.356Z,86.93
2022-12-15T12:21:38.523Z,88.10
2022-12-15T12:22:38.701Z,88.21
2022-12-15T12:23:39.391Z,88.52
2022-12-15T12:24:41.000Z,89.04
2022-12-15T12:25:40.764Z,88.94
2022-12-15T12:26:43.134Z,89.29
2022-12-15T12:27:42.307Z,89.81
2022-12-15T12:28:43.018Z,89.50
2022-12-15T12:29:43.734Z,89.98
2022-12-15T12:30:44.492Z,88.94
2022-12-15T12:31:44.997Z,89.29
2022-12-15T12:32:45.490Z,90.39
2022-12-15T12:33:46.218Z,89.77
2022-12-15T12:34:46.813Z,90.04
2022-12-15T12:35:47.331Z,89.27
2022-12-15T12:36:49.609Z,89.69
2022-12-15T12:37:48.891Z,88.13
2022-12-15T12:38:50.901Z,87.57
2022-12-15T12:39:50.604Z,87.53
2022-12-15T12:40:50.785Z,87.53
2022-12-15T12:41:52.098Z,85.94
2022-12-15T12:42:52.258Z,85.73
2022-12-15T12:43:52.970Z,85.42
2022-12-15T12:44:53.690Z,85.73
2022-12-15T12:45:54.405Z,86.66
2022-12-15T12:46:55.155Z,85.89
2022-12-15T12:47:55.900Z,85.94
2022-12-15T12:48:56.608Z,85.97
2022-12-15T12:49:57.314Z,86.08
2022-12-15T12:50:58.035Z,85.63
2022-12-15T12:51:59.020Z,86.76
2022-12-15T12:52:59.271Z,86.15
2022-12-15T12:54:00.039Z,86.93
2022-12-15T12:55:00.752Z,86.41
2022-12-15T12:56:01.415Z,86.93
2022-12-15T12:57:02.508Z,86.72
2022-12-15T12:58:02.720Z,85.89
2022-12-15T12:59:03.446Z,86.58
2022-12-15T13:00:04.155Z,85.86
2022-12-15T13:01:05.029Z,85.75
2022-12-15T13:02:06.095Z,85.27
2022-12-15T13:03:06.308Z,85.11